createdAt,value
2016-06-12T00:00:37.404Z,67.55
2016-06-12T00:01:36.986Z,67.74
2016-06-12T00:02:37.192Z,67.65
2016-06-12T00:03:36.898Z,67.55
2016-06-12T00:04:37.291Z,67.35
2016-06-12T00:05:36.919Z,67.26
2016-06-12T00:06:37.033Z,67.45
2016-06-12T00:07:36.864Z,67.8
2016-06-12T00:08:37.033Z,67.32
2016-06-12T00:09:37.137Z,67.26
2016-06-12T00:10:37.397Z,67.35
2016-06-12T00:11:36.828Z,67.45
2016-06-12T00:12:37.229Z,67.8
2016-06-12T00:13:37.504Z,67.65
2016-06-12T00:14:37.004Z,68.03
2016-06-12T00:15:37.116Z,68.13
2016-06-12T00:16:37.632Z,68.13
2016-06-12T00:17:36.571Z,67.55
2016-06-12T00:18:36.582Z,68.22
2016-06-12T00:19:37.980Z,67.83
2016-06-12T00:20:37.707Z,67.74
2016-06-12T00:21:36.871Z,67.9
2016-06-12T00:22:37.317Z,67.83
2016-06-12T00:23:37.339Z,67.71
2016-06-12T00:24:37.234Z,67.93
2016-06-12T00:25:37.645Z,67.99
2016-06-12T00:26:37.697Z,68.22
2016-06-12T00:27:37.218Z,68.03
2016-06-12T00:28:37.675Z,68.38
2016-06-12T00:29:37.288Z,67.93
2016-06-12T00:30:37.010Z,68.48
2016-06-12T00:31:42.217Z,68.19
2016-06-12T00:32:37.658Z,67.99
2016-06-12T00:33:37.662Z,68.13
2016-06-12T00:34:37.977Z,68.09
2016-06-12T00:35:37.308Z,68.09
2016-06-12T00:36:40.125Z,68.19
2016-06-12T00:37:37.284Z,68.09
2016-06-12T00:38:37.881Z,68.13
2016-06-12T00:39:37.385Z,68.29
2016-06-12T00:40:37.262Z,68.38
2016-06-12T00:41:37.407Z,68.29
2016-06-12T00:42:37.377Z,68.38
2016-06-12T00:43:37.131Z,68.19
2016-06-12T00:44:37.369Z,68.67
2016-06-12T00:45:37.325Z,68.38
2016-06-12T00:46:37.672Z,68.57
2016-06-12T00:47:36.956Z,68.57
2016-06-12T00:48:37.740Z,68.57
2016-06-12T00:49:37.541Z,68.57
2016-06-12T00:50:37.387Z,68.67
2016-06-12T00:51:37.297Z,68.67
2016-06-12T00:52:37.393Z,68.38
2016-06-12T00:53:37.162Z,68.29
2016-06-12T00:54:37.384Z,68.38
2016-06-12T00:55:36.902Z,68.86
2016-06-12T00:56:37.515Z,68.86
2016-06-12T00:57:37.862Z,68.86
2016-06-12T00:58:37.849Z,68.86
2016-06-12T00:59:37.274Z,69.06
2016-06-12T01:00:37.433Z,68.96
2016-06-12T01:01:37.358Z,69.06
2016-06-12T01:02:37.283Z,68.76
2016-06-12T01:03:37.475Z,68.57
2016-06-12T01:04:37.523Z,69.06
2016-06-12T01:05:37.511Z,68.86
2016-06-12T01:06:37.686Z,69.15
2016-06-12T01:07:37.705Z,69.63
2016-06-12T01:08:37.239Z,69.44
2016-06-12T01:09:37.664Z,69.53
2016-06-12T01:10:37.511Z,69.44
2016-06-12T01:11:37.638Z,69.34
2016-06-12T01:12:37.345Z,69.24
2016-06-12T01:13:37.895Z,69.44
2016-06-12T01:14:36.679Z,69.34
2016-06-12T01:15:37.355Z,69.44
2016-06-12T01:16:37.607Z,69.34
2016-06-12T01:17:37.471Z,69.44
2016-06-12T01:18:37.379Z,69.34
2016-06-12T01:19:37.476Z,69.34
2016-06-12T01:20:37.510Z,69.82
2016-06-12T01:21:36.732Z,69.82
2016-06-12T01:22:37.611Z,69.73
2016-06-12T01:23:37.395Z,69.6
2016-06-12T01:24:37.429Z,69.73
2016-06-12T01:25:37.682Z,69.63
2016-06-12T01:26:37.451Z,69.63
2016-06-12T01:27:37.860Z,69.6
2016-06-12T01:28:37.988Z,69.63
2016-06-12T01:29:37.616Z,69.63
2016-06-12T01:30:37.698Z,69.6
2016-06-12T01:31:37.403Z,69.6
2016-06-12T01:32:37.688Z,69.63
2016-06-12T01:33:37.410Z,69.5
2016-06-12T01:34:37.710Z,69.31
2016-06-12T01:35:38.104Z,69.4
2016-06-12T01:36:37.416Z,69.4
2016-06-12T01:37:37.216Z,69.31
2016-06-12T01:38:37.969Z,69.4
2016-06-12T01:39:37.566Z,69.6
2016-06-12T01:40:37.694Z,69.53
2016-06-12T01:41:38.010Z,69.69
2016-06-12T01:42:37.091Z,69.31
2016-06-12T01:43:36.875Z,69.5
2016-06-12T01:44:37.628Z,69.31
2016-06-12T01:45:38.022Z,69.21
2016-06-12T01:46:37.385Z,69.6
2016-06-12T01:47:38.137Z,69.21
2016-06-12T01:48:36.610Z,69.6
2016-06-12T01:49:37.628Z,69.69
2016-06-12T01:50:37.537Z,69.89
2016-06-12T01:51:37.962Z,69.6
2016-06-12T01:52:37.872Z,69.89
2016-06-12T01:53:37.468Z,69.79
2016-06-12T01:54:37.346Z,69.69
2016-06-12T01:55:37.522Z,69.89
2016-06-12T01:56:37.587Z,69.79
2016-06-12T01:57:37.199Z,70.07
2016-06-12T01:58:37.984Z,70.07
2016-06-12T01:59:37.486Z,70.37
2016-06-12T02:00:37.631Z,69.98
2016-06-12T02:01:37.650Z,69.79
2016-06-12T02:02:37.856Z,69.89
2016-06-12T02:03:37.859Z,69.89
2016-06-12T02:04:37.580Z,70.17
2016-06-12T02:05:37.787Z,70.07
2016-06-12T02:06:37.899Z,69.79
2016-06-12T02:07:38.027Z,70.07
2016-06-12T02:08:37.999Z,70.37
2016-06-12T02:09:37.878Z,70.37
2016-06-12T02:10:37.521Z,70.37
2016-06-12T02:11:37.790Z,70.27
2016-06-12T02:12:37.605Z,70.27
2016-06-12T02:13:37.421Z,69.79
2016-06-12T02:14:37.940Z,69.89
2016-06-12T02:15:37.349Z,69.46
2016-06-12T02:16:37.758Z,69.69
2016-06-12T02:17:37.527Z,69.89
2016-06-12T02:18:37.295Z,69.6
2016-06-12T02:19:37.173Z,69.79
2016-06-12T02:20:37.598Z,69.4
2016-06-12T02:21:37.898Z,69.6
2016-06-12T02:22:38.027Z,69.79
2016-06-12T02:23:38.029Z,69.6
2016-06-12T02:24:37.829Z,69.6
2016-06-12T02:25:37.004Z,69.98
2016-06-12T02:26:37.758Z,69.5
2016-06-12T02:27:37.870Z,69.4
2016-06-12T02:28:37.653Z,69.69
2016-06-12T02:29:37.751Z,69.6
2016-06-12T02:30:37.567Z,69.31
2016-06-12T02:31:37.523Z,69.31
2016-06-12T02:32:37.698Z,69.5
2016-06-12T02:33:37.467Z,69.6
2016-06-12T02:34:37.501Z,69.21
2016-06-12T02:35:37.629Z,69.4
2016-06-12T02:36:37.647Z,69.31
2016-06-12T02:37:37.541Z,69.69
2016-06-12T02:38:37.748Z,69.79
2016-06-12T02:39:37.720Z,69.6
2016-06-12T02:40:37.660Z,69.79
2016-06-12T02:41:37.803Z,69.75
2016-06-12T02:42:37.682Z,69.85
2016-06-12T02:43:37.982Z,69.89
2016-06-12T02:44:37.813Z,70.27
2016-06-12T02:45:37.878Z,69.89
2016-06-12T02:46:37.881Z,70.23
2016-06-12T02:47:38.025Z,70.04
2016-06-12T02:48:37.997Z,70.17
2016-06-12T02:49:36.765Z,70.04
2016-06-12T02:50:37.706Z,70.27
2016-06-12T02:51:37.803Z,70.33
2016-06-12T02:52:37.713Z,70.46
2016-06-12T02:53:37.652Z,70.27
2016-06-12T02:54:37.905Z,70.33
2016-06-12T02:55:38.050Z,70.33
2016-06-12T02:56:37.662Z,70.04
2016-06-12T02:57:37.789Z,70.04
2016-06-12T02:58:37.762Z,69.89
2016-06-12T02:59:37.781Z,69.95
2016-06-12T03:00:37.862Z,70.17
2016-06-12T03:01:37.834Z,70.14
2016-06-12T03:02:37.633Z,69.98
2016-06-12T03:03:37.621Z,70.04
2016-06-12T03:04:37.874Z,70.04
2016-06-12T03:05:37.815Z,69.89
2016-06-12T03:06:37.599Z,69.95
2016-06-12T03:07:37.805Z,70.14
2016-06-12T03:08:37.856Z,70.52
2016-06-12T03:09:37.655Z,70.07
2016-06-12T03:10:37.782Z,70.43
2016-06-12T03:11:37.786Z,70.33
2016-06-12T03:12:37.789Z,70.9
2016-06-12T03:13:37.980Z,70.52
2016-06-12T03:14:37.686Z,70.72
2016-06-12T03:15:38.002Z,69.95
2016-06-12T03:16:37.834Z,70.23
2016-06-12T03:17:37.601Z,70.81
2016-06-12T03:18:37.823Z,70.43
2016-06-12T03:19:37.779Z,70.33
2016-06-12T03:20:37.454Z,70.43
2016-06-12T03:21:38.067Z,70.23
2016-06-12T03:22:36.882Z,70.14
2016-06-12T03:23:38.197Z,69.95
2016-06-12T03:24:37.889Z,69.95
2016-06-12T03:25:38.392Z,69.95
2016-06-12T03:26:38.223Z,69.85
2016-06-12T03:27:38.148Z,70.23
2016-06-12T03:28:37.823Z,70.23
2016-06-12T03:29:37.951Z,69.85
2016-06-12T03:30:37.924Z,70.14
2016-06-12T03:31:37.738Z,70.14
2016-06-12T03:32:38.163Z,69.95
2016-06-12T03:33:37.776Z,69.95
2016-06-12T03:34:37.451Z,69.75
2016-06-12T03:35:37.985Z,69.75
2016-06-12T03:36:38.206Z,69.75
2016-06-12T03:37:37.788Z,69.85
2016-06-12T03:38:38.104Z,70.23
2016-06-12T03:39:38.232Z,70.23
2016-06-12T03:40:38.125Z,69.66
2016-06-12T03:41:38.347Z,69.75
2016-06-12T03:42:37.992Z,69.95
2016-06-12T03:43:37.916Z,69.66
2016-06-12T03:44:37.341Z,69.75
2016-06-12T03:45:38.390Z,69.56
2016-06-12T03:46:37.456Z,70.04
2016-06-12T03:47:37.788Z,69.75
2016-06-12T03:48:37.994Z,69.75
2016-06-12T03:49:38.231Z,69.75
2016-06-12T03:50:36.938Z,69.75
2016-06-12T03:51:37.644Z,69.66
2016-06-12T03:52:37.787Z,69.75
2016-06-12T03:53:38.337Z,69.56
2016-06-12T03:54:38.325Z,69.66
2016-06-12T03:55:37.938Z,69.75
2016-06-12T03:56:37.721Z,70.23
2016-06-12T03:57:37.537Z,69.95
2016-06-12T03:58:37.634Z,69.85
2016-06-12T03:59:37.871Z,70.33
2016-06-12T04:00:37.781Z,70.33
2016-06-12T04:01:37.972Z,70.43
2016-06-12T04:02:37.786Z,70.52
2016-06-12T04:03:37.945Z,70.33
2016-06-12T04:04:38.028Z,70.14
2016-06-12T04:05:37.765Z,70.62
2016-06-12T04:06:37.705Z,70.62
2016-06-12T04:07:38.380Z,70.52
2016-06-12T04:08:37.961Z,70.72
2016-06-12T04:09:37.761Z,70.62
2016-06-12T04:10:37.889Z,70.33
2016-06-12T04:11:38.189Z,70.04
2016-06-12T04:12:37.848Z,70.14
2016-06-12T04:13:38.117Z,70.43
2016-06-12T04:14:38.355Z,70.33
2016-06-12T04:15:38.232Z,70.33
2016-06-12T04:16:37.815Z,69.75
2016-06-12T04:17:38.318Z,70.43
2016-06-12T04:18:37.961Z,70.81
2016-06-12T04:19:38.244Z,70.43
2016-06-12T04:20:38.248Z,70.33
2016-06-12T04:21:38.470Z,70.33
2016-06-12T04:22:38.067Z,70.33
2016-06-12T04:23:38.398Z,70.9
2016-06-12T04:24:37.964Z,70.9
2016-06-12T04:25:37.780Z,70.81
2016-06-12T04:26:37.985Z,70.72
2016-06-12T04:27:38.098Z,70.72
2016-06-12T04:28:38.132Z,70.72
2016-06-12T04:29:38.214Z,70.81
2016-06-12T04:30:37.889Z,70.72
2016-06-12T04:31:37.814Z,70.72
2016-06-12T04:32:38.003Z,70.72
2016-06-12T04:33:38.054Z,70.72
2016-06-12T04:34:38.276Z,70.84
2016-06-12T04:35:38.201Z,70.72
2016-06-12T04:36:38.079Z,70.52
2016-06-12T04:37:37.957Z,70.9
2016-06-12T04:38:38.086Z,70.72
2016-06-12T04:39:38.400Z,70.52
2016-06-12T04:40:38.028Z,70.75
2016-06-12T04:41:38.298Z,70.46
2016-06-12T04:42:38.223Z,70.72
2016-06-12T04:43:37.960Z,70.56
2016-06-12T04:44:37.854Z,70.43
2016-06-12T04:45:38.560Z,70.52
2016-06-12T04:46:37.938Z,70.75
2016-06-12T04:47:37.941Z,70.62
2016-06-12T04:48:38.178Z,70.81
2016-06-12T04:49:38.025Z,70.94
2016-06-12T04:50:37.840Z,70.62
2016-06-12T04:51:37.328Z,70.52
2016-06-12T04:52:38.082Z,70.52
2016-06-12T04:53:37.412Z,70.65
2016-06-12T04:54:38.493Z,70.56
2016-06-12T04:55:38.419Z,70.75
2016-06-12T04:56:37.922Z,70.72
2016-06-12T04:57:38.158Z,70.65
2016-06-12T04:58:38.037Z,70.37
2016-06-12T04:59:38.072Z,70.04
2016-06-12T05:00:38.293Z,69.89
2016-06-12T05:01:38.484Z,70.14
2016-06-12T05:02:38.409Z,69.98
2016-06-12T05:03:37.959Z,69.95
2016-06-12T05:04:38.102Z,70.04
2016-06-12T05:05:38.496Z,70.14
2016-06-12T05:06:38.312Z,69.98
2016-06-12T05:07:38.003Z,70.46
2016-06-12T05:08:38.145Z,70.37
2016-06-12T05:09:38.023Z,70.46
2016-06-12T05:12:34.157Z,70.17
2016-06-12T05:13:02.568Z,69.98
2016-06-12T05:14:03.352Z,69.79
2016-06-12T05:15:03.449Z,69.6
2016-06-12T05:16:03.483Z,69.89
2016-06-12T05:17:02.564Z,69.69
2016-06-12T05:18:02.817Z,69.79
2016-06-12T05:19:03.368Z,69.6
2016-06-12T05:20:03.401Z,69.4
2016-06-12T05:21:03.514Z,69.79
2016-06-12T05:22:03.549Z,69.6
2016-06-12T05:23:03.505Z,69.6
2016-06-12T05:24:03.335Z,70.27
2016-06-12T05:25:03.433Z,70.37
2016-06-12T05:26:03.575Z,69.79
2016-06-12T05:27:03.736Z,70.17
2016-06-12T05:28:03.379Z,69.89
2016-06-12T05:29:03.523Z,69.98
2016-06-12T05:30:03.463Z,69.98
2016-06-12T05:31:03.296Z,70.27
2016-06-12T05:32:03.548Z,70.07
2016-06-12T05:33:03.505Z,69.79
2016-06-12T05:34:03.710Z,70.17
2016-06-12T05:35:03.495Z,70.07
2016-06-12T05:36:03.763Z,70.17
2016-06-12T05:37:03.439Z,70.17
2016-06-12T05:38:03.270Z,70.17
2016-06-12T05:39:03.491Z,70.07
2016-06-12T05:40:03.713Z,70.07
2016-06-12T05:41:03.451Z,69.98
2016-06-12T05:42:03.907Z,70.07
2016-06-12T05:43:03.722Z,70.3
2016-06-12T05:44:03.163Z,70.01
2016-06-12T05:45:03.619Z,69.79
2016-06-12T05:46:03.450Z,69.92
2016-06-12T05:47:03.437Z,69.82
2016-06-12T05:48:04.050Z,69.89
2016-06-12T05:49:03.771Z,70.11
2016-06-12T05:50:03.259Z,70.11
2016-06-12T05:51:03.544Z,70.21
2016-06-12T05:52:03.875Z,70.3
2016-06-12T05:53:03.706Z,70.11
2016-06-12T05:54:03.287Z,69.92
2016-06-12T05:55:03.572Z,69.89
2016-06-12T05:56:03.512Z,70.11
2016-06-12T05:57:03.390Z,70.21
2016-06-12T05:58:03.847Z,70.21
2016-06-12T05:59:03.771Z,70.01
2016-06-12T06:00:03.665Z,70.4
2016-06-12T06:01:03.856Z,69.73
2016-06-12T06:02:03.874Z,69.73
2016-06-12T06:03:03.659Z,69.82
2016-06-12T06:04:03.974Z,69.63
2016-06-12T06:05:03.571Z,69.73
2016-06-12T06:06:03.964Z,69.44
2016-06-12T06:07:03.827Z,69.44
2016-06-12T06:08:03.596Z,69.53
2016-06-12T06:09:03.724Z,69.63
2016-06-12T06:10:03.899Z,69.63
2016-06-12T06:11:03.949Z,69.44
2016-06-12T06:12:03.483Z,69.44
2016-06-12T06:13:03.564Z,69.06
2016-06-12T06:14:03.864Z,68.76
2016-06-12T06:15:03.743Z,69.06
2016-06-12T06:16:03.745Z,68.96
2016-06-12T06:17:03.232Z,68.86
2016-06-12T06:18:02.643Z,68.76
2016-06-12T06:19:02.583Z,68.86
2016-06-12T06:20:03.774Z,68.96
2016-06-12T06:23:27.251Z,68.29
2016-06-12T06:24:27.864Z,68.48
2016-06-12T06:25:27.664Z,68.67
2016-06-12T06:26:28.277Z,68.48
2016-06-12T06:28:52.411Z,68.29
2016-06-12T06:29:53.023Z,68.57
2016-06-12T06:30:52.917Z,68.41
2016-06-12T06:31:53.028Z,68.51
2016-06-12T06:32:52.517Z,68.8
2016-06-12T06:33:52.832Z,68.6
2016-06-12T06:34:51.787Z,68.8
2016-06-12T06:35:51.838Z,68.7
2016-06-12T06:36:52.857Z,68.51
2016-06-12T06:37:52.751Z,68.8
2016-06-12T06:38:52.988Z,68.22
2016-06-12T06:39:52.851Z,68.13
2016-06-12T06:40:53.151Z,68.13
2016-06-12T06:41:52.075Z,68.13
2016-06-12T06:42:52.720Z,67.83
2016-06-12T06:43:52.831Z,67.93
2016-06-12T06:44:52.601Z,67.93
2016-06-12T06:45:52.729Z,67.93
2016-06-12T06:46:53.154Z,68.13
2016-06-12T06:47:53.063Z,67.83
2016-06-12T06:48:52.315Z,68.22
2016-06-12T06:49:53.256Z,67.93
2016-06-12T06:50:52.447Z,67.93
2016-06-12T06:51:52.965Z,67.74
2016-06-12T06:52:52.484Z,67.65
2016-06-12T06:53:52.831Z,67.65
2016-06-12T06:54:52.834Z,67.65
2016-06-12T06:55:52.806Z,67.65
2016-06-12T06:56:52.528Z,67.26
2016-06-12T06:57:52.703Z,67.55
2016-06-12T06:58:52.736Z,67.65
2016-06-12T06:59:52.975Z,67.45
2016-06-12T07:00:53.040Z,67.49
2016-06-12T07:01:52.778Z,67.55
2016-06-12T07:02:52.468Z,67.55
2016-06-12T07:03:52.862Z,67.58
2016-06-12T07:04:52.677Z,67.58
2016-06-12T07:05:52.977Z,67.58
2016-06-12T07:06:53.450Z,67.49
2016-06-12T07:07:52.922Z,67.29
2016-06-12T07:08:51.753Z,67.49
2016-06-12T07:09:52.849Z,67.39
2016-06-12T07:10:53.274Z,67.49
2016-06-12T07:11:53.012Z,67.49
2016-06-12T07:12:52.530Z,67.29
2016-06-12T07:13:52.751Z,66.81
2016-06-12T07:14:52.349Z,66.81
2016-06-12T07:15:52.946Z,66.71
2016-06-12T07:16:53.152Z,67.19
2016-06-12T07:17:52.983Z,66.81
2016-06-12T07:18:53.298Z,67
2016-06-12T07:19:52.911Z,67
2016-06-12T07:20:51.773Z,66.91
2016-06-12T07:21:52.807Z,67.1
2016-06-12T07:22:52.843Z,67
2016-06-12T07:23:52.736Z,67
2016-06-12T07:24:52.879Z,66.71
2016-06-12T07:25:52.570Z,66.91
2016-06-12T07:26:52.838Z,66.62
2016-06-12T07:27:52.966Z,66.81
2016-06-12T07:28:53.298Z,67
2016-06-12T07:29:52.676Z,67.49
2016-06-12T07:30:52.617Z,67.1
2016-06-12T07:31:52.885Z,67.42
2016-06-12T07:32:52.826Z,66.65
2016-06-12T07:33:52.594Z,66.85
2016-06-12T07:34:52.519Z,66.71
2016-06-12T07:35:52.710Z,66.85
2016-06-12T07:36:53.135Z,66.65
2016-06-12T07:37:53.248Z,66.62
2016-06-12T07:38:51.860Z,66.94
2016-06-12T07:39:52.879Z,66.85
2016-06-12T07:40:53.038Z,66.75
2016-06-12T07:41:52.760Z,66.91
2016-06-12T07:42:53.107Z,66.71
2016-06-12T07:43:52.813Z,66.55
2016-06-12T07:44:52.738Z,66.94
2016-06-12T07:45:52.835Z,66.65
2016-06-12T07:46:52.728Z,66.17
2016-06-12T07:47:53.278Z,66.36
2016-06-12T07:48:53.140Z,66.27
2016-06-12T07:49:53.347Z,66.46
2016-06-12T07:50:52.959Z,66.55
2016-06-12T07:51:53.290Z,66.65
2016-06-12T07:52:53.122Z,66.07
2016-06-12T07:53:53.297Z,66.36
2016-06-12T07:54:52.972Z,66.07
2016-06-12T07:55:53.084Z,65.98
2016-06-12T07:56:52.697Z,65.98
2016-06-12T07:57:52.856Z,65.98
2016-06-12T07:58:52.921Z,65.69
2016-06-12T07:59:53.049Z,65.5
2016-06-12T08:00:52.927Z,66.27
2016-06-12T08:01:53.150Z,65.78
2016-06-12T08:02:53.355Z,65.78
2016-06-12T08:03:53.078Z,65.78
2016-06-12T08:04:53.158Z,65.78
2016-06-12T08:05:53.380Z,66.01
2016-06-12T08:06:53.368Z,65.59
2016-06-12T08:07:53.308Z,65.05
2016-06-12T08:08:53.093Z,64.92
2016-06-12T08:09:52.077Z,65.01
2016-06-12T08:10:53.193Z,65.2
2016-06-12T08:11:52.821Z,65.2
2016-06-12T08:12:53.339Z,65.14
2016-06-12T08:13:53.296Z,64.66
2016-06-12T08:14:53.127Z,64.66
2016-06-12T08:15:53.364Z,64.18
2016-06-12T08:16:53.258Z,64.18
2016-06-12T08:17:52.854Z,64.08
2016-06-12T08:18:53.093Z,64.28
2016-06-12T08:19:53.064Z,63.98
2016-06-12T08:20:52.880Z,63.76
2016-06-12T08:21:53.633Z,63.98
2016-06-12T08:22:52.586Z,64.08
2016-06-12T08:23:52.917Z,64.28
2016-06-12T08:24:53.186Z,63.98
2016-06-12T08:25:53.251Z,64.28
2016-06-12T08:26:52.912Z,63.6
2016-06-12T08:27:53.336Z,63.5
2016-06-12T08:28:52.010Z,63.21
2016-06-12T08:29:52.968Z,63.41
2016-06-12T08:30:52.845Z,63.21
2016-06-12T08:31:53.052Z,63.41
2016-06-12T08:32:53.069Z,63.41
2016-06-12T08:33:51.854Z,63.02
2016-06-12T08:34:53.201Z,63.41
2016-06-12T08:35:53.313Z,63.31
2016-06-12T08:36:53.410Z,63.41
2016-06-12T08:37:53.429Z,63.21
2016-06-12T08:38:53.323Z,63.12
2016-06-12T08:39:52.935Z,63.12
2016-06-12T08:40:53.235Z,63.12
2016-06-12T08:41:53.191Z,63.21
2016-06-12T08:42:51.945Z,63.02
2016-06-12T08:43:53.167Z,63.12
2016-06-12T08:44:53.075Z,62.93
2016-06-12T08:45:52.688Z,63.12
2016-06-12T08:46:53.519Z,63.12
2016-06-12T08:47:53.193Z,62.86
2016-06-12T08:48:53.104Z,63.06
2016-06-12T08:49:53.497Z,63.02
2016-06-12T08:50:53.250Z,62.93
2016-06-12T08:51:53.363Z,63.12
2016-06-12T08:52:53.225Z,63.15
2016-06-12T08:53:53.587Z,63.06
2016-06-12T08:54:53.029Z,63.15
2016-06-12T08:55:52.954Z,63.24
2016-06-12T08:56:53.315Z,62.96
2016-06-12T08:57:53.069Z,63.15
2016-06-12T08:58:53.385Z,63.15
2016-06-12T08:59:53.200Z,63.06
2016-06-12T09:00:53.390Z,63.15
2016-06-12T09:01:53.050Z,63.06
2016-06-12T09:02:53.537Z,62.57
2016-06-12T09:03:53.243Z,62.57
2016-06-12T09:04:52.762Z,62.66
2016-06-12T09:05:53.265Z,62.57
2016-06-12T09:06:53.096Z,62.57
2016-06-12T09:07:53.271Z,62.57
2016-06-12T09:08:53.197Z,62.48
2016-06-12T09:09:53.261Z,62.48
2016-06-12T09:10:52.375Z,62.48
2016-06-12T09:11:52.987Z,62.28
2016-06-12T09:12:52.895Z,62.57
2016-06-12T09:13:53.023Z,62.48
2016-06-12T09:14:52.669Z,62.48
2016-06-12T09:15:53.478Z,62.48
2016-06-12T09:16:53.506Z,62.57
2016-06-12T09:17:53.503Z,62.48
2016-06-12T09:18:53.719Z,62.28
2016-06-12T09:19:53.418Z,62.28
2016-06-12T09:20:53.311Z,62.6
2016-06-12T09:21:53.516Z,62.28
2016-06-12T09:22:53.456Z,62.31
2016-06-12T09:23:53.692Z,62.09
2016-06-12T09:24:53.928Z,62.31
2016-06-12T09:25:53.592Z,62.22
2016-06-12T09:26:52.475Z,62.22
2016-06-12T09:27:52.452Z,62.28
2016-06-12T09:28:53.524Z,62.22
2016-06-12T09:29:53.141Z,61.99
2016-06-12T09:30:52.943Z,61.93
2016-06-12T09:31:53.650Z,61.83
2016-06-12T09:32:53.687Z,61.93
2016-06-12T09:33:53.019Z,61.93
2016-06-12T09:34:54.134Z,62.02
2016-06-12T09:35:53.497Z,62.12
2016-06-12T09:36:53.126Z,62.22
2016-06-12T09:37:53.943Z,62.22
2016-06-12T09:38:53.508Z,62.22
2016-06-12T09:39:53.248Z,62.31
2016-06-12T09:40:53.751Z,62.22
2016-06-12T09:41:53.629Z,61.93
2016-06-12T09:42:53.164Z,61.83
2016-06-12T09:43:53.370Z,61.83
2016-06-12T09:44:53.921Z,61.93
2016-06-12T09:45:53.799Z,61.74
2016-06-12T09:46:54.021Z,61.64
2016-06-12T09:47:53.602Z,61.54
2016-06-12T09:48:53.120Z,61.74
2016-06-12T09:49:53.951Z,61.64
2016-06-12T09:50:53.861Z,61.54
2016-06-12T09:51:53.615Z,61.54
2016-06-12T09:52:53.820Z,61.54
2016-06-12T09:53:53.667Z,61.54
2016-06-12T09:54:53.874Z,61.47
2016-06-12T09:55:53.580Z,61.44
2016-06-12T09:56:53.566Z,61.44
2016-06-12T09:57:53.710Z,61.35
2016-06-12T09:58:53.495Z,61.44
2016-06-12T09:59:53.873Z,61.74
2016-06-12T10:00:53.923Z,61.64
2016-06-12T10:01:53.645Z,61.57
2016-06-12T10:02:53.538Z,61.44
2016-06-12T10:03:53.619Z,61.86
2016-06-12T10:04:53.435Z,61.64
2016-06-12T10:05:53.625Z,61.44
2016-06-12T10:06:53.645Z,61.44
2016-06-12T10:07:54.053Z,61.67
2016-06-12T10:08:53.681Z,61.44
2016-06-12T10:09:53.982Z,61.64
2016-06-12T10:10:53.454Z,61.57
2016-06-12T10:11:52.815Z,61.57
2016-06-12T10:12:53.476Z,61.57
2016-06-12T10:13:53.650Z,61.57
2016-06-12T10:14:53.575Z,61.57
2016-06-12T10:15:53.656Z,61.57
2016-06-12T10:16:53.941Z,61.38
2016-06-12T10:17:53.741Z,61.67
2016-06-12T10:18:53.665Z,61.47
2016-06-12T10:21:49.549Z,61.38
2016-06-12T10:22:18.350Z,61.28
2016-06-12T10:23:19.369Z,61.38
2016-06-12T10:26:43.472Z,61.47
2016-06-12T10:27:44.287Z,61.67
2016-06-12T10:28:44.415Z,61.47
2016-06-12T10:29:44.293Z,61.38
2016-06-12T10:30:47.796Z,61.57
2016-06-12T10:31:43.941Z,61.57
2016-06-12T10:32:44.428Z,61.67
2016-06-12T10:33:44.337Z,61.57
2016-06-12T10:34:44.261Z,61.57
2016-06-12T10:35:44.453Z,61.47
2016-06-12T10:36:44.659Z,61.47
2016-06-12T10:37:44.568Z,61.47
2016-06-12T10:38:44.087Z,61.57
2016-06-12T10:39:44.699Z,61.47
2016-06-12T10:40:44.312Z,61.77
2016-06-12T10:41:44.299Z,61.67
2016-06-12T10:42:44.396Z,61.57
2016-06-12T10:43:44.133Z,61.86
2016-06-12T10:44:44.230Z,61.86
2016-06-12T10:45:44.373Z,61.67
2016-06-12T10:46:44.126Z,61.57
2016-06-12T10:47:44.317Z,61.57
2016-06-12T10:48:44.790Z,61.57
2016-06-12T10:49:44.355Z,61.57
2016-06-12T10:50:44.170Z,61.67
2016-06-12T10:51:44.377Z,61.47
2016-06-12T10:52:45.974Z,61.47
2016-06-12T10:53:44.585Z,61.57
2016-06-12T10:54:44.230Z,61.57
2016-06-12T10:55:44.701Z,61.47
2016-06-12T10:56:44.345Z,61.57
2016-06-12T10:57:44.239Z,61.77
2016-06-12T10:58:44.383Z,61.67
2016-06-12T10:59:44.354Z,61.57
2016-06-12T11:03:08.273Z,61.77
2016-06-12T11:04:08.806Z,61.28
2016-06-12T11:05:09.170Z,61.31
2016-06-12T11:06:09.313Z,61.38
2016-06-12T11:07:08.987Z,61.47
2016-06-12T11:08:09.773Z,61.38
2016-06-12T11:09:08.854Z,61.38
2016-06-12T11:10:08.919Z,61.57
2016-06-12T11:11:09.016Z,61.67
2016-06-12T11:12:09.003Z,61.38
2016-06-12T11:13:09.241Z,61.41
2016-06-12T11:14:08.698Z,61.57
2016-06-12T11:15:09.045Z,61.38
2016-06-12T11:16:09.016Z,61.47
2016-06-12T11:17:09.472Z,61.51
2016-06-12T11:18:08.990Z,61.51
2016-06-12T11:19:09.041Z,61.41
2016-06-12T11:20:09.106Z,61.47
2016-06-12T11:21:09.391Z,61.28
2016-06-12T11:22:08.487Z,61.28
2016-06-12T11:23:09.209Z,61.31
2016-06-12T11:24:09.447Z,61.12
2016-06-12T11:25:09.340Z,61.31
2016-06-12T11:26:09.234Z,61.51
2016-06-12T11:27:09.471Z,61.31
2016-06-12T11:28:08.240Z,61.6
2016-06-12T11:29:09.056Z,61.7
2016-06-12T11:30:08.965Z,61.19
2016-06-12T11:31:08.749Z,61.02
2016-06-12T11:32:08.768Z,61.6
2016-06-12T11:33:09.318Z,61.51
2016-06-12T11:34:09.306Z,61.41
2016-06-12T11:35:08.934Z,61.51
2016-06-12T11:36:09.140Z,61.6
2016-06-12T11:37:09.550Z,61.51
2016-06-12T11:38:09.334Z,61.41
2016-06-12T11:39:09.572Z,61.02
2016-06-12T11:40:09.434Z,60.83
2016-06-12T11:41:08.983Z,61.12
2016-06-12T11:42:08.752Z,60.93
2016-06-12T11:43:08.973Z,60.93
2016-06-12T11:44:09.070Z,60.93
2016-06-12T11:45:08.996Z,61.12
2016-06-12T11:46:09.108Z,61.12
2016-06-12T11:47:09.533Z,60.93
2016-06-12T11:48:09.036Z,61.02
2016-06-12T11:49:09.227Z,61.02
2016-06-12T11:50:09.136Z,60.73
2016-06-12T11:51:08.936Z,61.02
2016-06-12T11:52:09.267Z,61.12
2016-06-12T11:53:09.802Z,60.93
2016-06-12T11:54:09.070Z,60.93
2016-06-12T11:55:08.464Z,61.12
2016-06-12T11:56:08.999Z,61.12
2016-06-12T11:57:09.438Z,61.02
2016-06-12T11:58:08.066Z,61.22
2016-06-12T11:59:09.289Z,61.12
2016-06-12T12:00:09.448Z,60.93
2016-06-12T12:01:09.342Z,60.93
2016-06-12T12:02:08.626Z,61.41
2016-06-12T12:03:09.129Z,61.02
2016-06-12T12:04:08.913Z,61.41
2016-06-12T12:05:09.244Z,61.02
2016-06-12T12:06:09.497Z,60.93
2016-06-12T12:07:09.391Z,60.83
2016-06-12T12:08:09.222Z,60.93
2016-06-12T12:09:08.960Z,61.51
2016-06-12T12:10:09.026Z,61.05
2016-06-12T12:11:09.309Z,61.12
2016-06-12T12:12:09.047Z,61.02
2016-06-12T12:13:09.113Z,61.22
2016-06-12T12:14:09.054Z,60.93
2016-06-12T12:15:09.354Z,61.02
2016-06-12T12:16:08.904Z,61.15
2016-06-12T12:17:09.328Z,61.12
2016-06-12T12:18:09.284Z,60.76
2016-06-12T12:19:09.038Z,60.86
2016-06-12T12:20:09.151Z,60.96
2016-06-12T12:21:09.294Z,61.02
2016-06-12T12:22:09.016Z,61.22
2016-06-12T12:23:09.191Z,61.15
2016-06-12T12:24:09.693Z,60.86
2016-06-12T12:25:08.916Z,61.05
2016-06-12T12:26:09.138Z,61.6
2016-06-12T12:27:09.343Z,61.54
2016-06-12T12:28:09.034Z,61.54
2016-06-12T12:29:08.428Z,61.15
2016-06-12T12:30:09.759Z,61.54
2016-06-12T12:31:09.075Z,61.63
2016-06-12T12:32:09.390Z,61.15
2016-06-12T12:33:09.394Z,61.34
2016-06-12T12:34:09.116Z,61.54
2016-06-12T12:35:09.196Z,61.54
2016-06-12T12:36:09.418Z,61.44
2016-06-12T12:37:09.296Z,61.54
2016-06-12T12:38:08.877Z,61.63
2016-06-12T12:39:09.037Z,61.44
2016-06-12T12:40:09.774Z,61.34
2016-06-12T12:41:09.011Z,61.15
2016-06-12T12:42:09.452Z,61.44
2016-06-12T12:43:09.393Z,61.44
2016-06-12T12:44:09.506Z,61.54
2016-06-12T12:45:09.196Z,61.25
2016-06-12T12:46:09.183Z,61.73
2016-06-12T12:47:09.170Z,61.83
2016-06-12T12:48:09.517Z,61.34
2016-06-12T12:49:09.005Z,61.34
2016-06-12T12:50:09.399Z,61.44
2016-06-12T12:51:09.355Z,61.63
2016-06-12T12:52:09.030Z,61.34
2016-06-12T12:53:09.252Z,61.63
2016-06-12T12:54:09.224Z,61.34
2016-06-12T12:55:09.430Z,61.54
2016-06-12T12:56:09.401Z,61.73
2016-06-12T12:57:09.373Z,61.34
2016-06-12T12:58:09.361Z,61.63
2016-06-12T12:59:09.193Z,61.44
2016-06-12T13:00:09.617Z,61.63
2016-06-12T13:01:09.277Z,61.54
2016-06-12T13:02:09.311Z,61.54
2016-06-12T13:03:09.282Z,61.63
2016-06-12T13:04:09.347Z,61.63
2016-06-12T13:05:09.211Z,62.02
2016-06-12T13:06:09.400Z,61.54
2016-06-12T13:07:09.435Z,61.73